sensor_id;sensor_type;location;lat;lon;timestamp;pressure;altitude;pressure_sealevel;temperature;humidity
75317;BME280;63913;51.492;10.368;2023-11-21T00:00:09;97770.19;;;4.95;100.00
75317;BME280;63913;51.492;10.368;2023-11-21T00:02:41;97773.03;;;5.03;100.00
75317;BME280;63913;51.492;10.368;2023-11-21T00:05:08;97776.53;;;5.06;100.00
75317;BME280;63913;51.492;10.368;2023-11-21T00:07:35;97782.38;;;5.04;100.00
75317;BME280;63913;51.492;10.368;2023-11-21T00:10:01;97783.22;;;5.03;100.00
75317;BME280;63913;51.492;10.368;2023-11-21T00:12:26;97779.69;;;4.99;100.00
75317;BME280;63913;51.492;10.368;2023-11-21T00:14:52;97785.09;;;5.08;100.00
75317;BME280;63913;51.492;10.368;2023-11-21T00:17:18;97781.63;;;5.06;100.00
75317;BME280;63913;51.492;10.368;2023-11-21T00:19:44;97784.97;;;5.05;100.00
75317;BME280;63913;51.492;10.368;2023-11-21T00:22:09;97780.69;;;5.04;100.00
75317;BME280;63913;51.492;10.368;2023-11-21T00:24:34;97781.38;;;4.98;100.00
75317;BME280;63913;51.492;10.368;2023-11-21T00:27:00;97786.59;;;5.03;100.00
75317;BME280;63913;51.492;10.368;2023-11-21T00:29:25;97795.09;;;5.04;100.00
75317;BME280;63913;51.492;10.368;2023-11-21T00:31:52;97787.44;;;5.02;100.00
75317;BME280;63913;51.492;10.368;2023-11-21T00:34:17;97791.91;;;5.09;100.00
75317;BME280;63913;51.492;10.368;2023-11-21T00:36:43;97782.72;;;5.14;100.00
75317;BME280;63913;51.492;10.368;2023-11-21T00:39:08;97780.13;;;5.13;100.00
75317;BME280;63913;51.492;10.368;2023-11-21T00:41:33;97782.97;;;5.22;100.00
75317;BME280;63913;51.492;10.368;2023-11-21T00:44:00;97789.78;;;5.23;100.00
75317;BME280;63913;51.492;10.368;2023-11-21T00:46:26;97790.94;;;5.32;100.00
75317;BME280;63913;51.492;10.368;2023-11-21T00:48:53;97786.53;;;5.27;100.00
75317;BME280;63913;51.492;10.368;2023-11-21T00:51:19;97786.66;;;5.31;100.00
75317;BME280;63913;51.492;10.368;2023-11-21T00:53:45;97792.69;;;5.33;100.00
75317;BME280;63913;51.492;10.368;2023-11-21T00:56:11;97799.47;;;5.33;100.00
75317;BME280;63913;51.492;10.368;2023-11-21T00:58:37;97802.00;;;5.33;100.00
75317;BME280;63913;51.492;10.368;2023-11-21T01:01:02;97803.81;;;5.37;100.00
75317;BME280;63913;51.492;10.368;2023-11-21T01:03:28;97806.59;;;5.43;100.00
75317;BME280;63913;51.492;10.368;2023-11-21T01:05:54;97816.97;;;5.49;100.00
75317;BME280;63913;51.492;10.368;2023-11-21T01:08:20;97811.88;;;5.49;100.00
75317;BME280;63913;51.492;10.368;2023-11-21T01:10:46;97810.19;;;5.50;100.00
75317;BME280;63913;51.492;10.368;2023-11-21T01:13:13;97817.78;;;5.48;100.00
75317;BME280;63913;51.492;10.368;2023-11-21T01:15:40;97817.00;;;5.51;100.00
75317;BME280;63913;51.492;10.368;2023-11-21T01:18:07;97823.94;;;5.55;100.00
75317;BME280;63913;51.492;10.368;2023-11-21T01:20:34;97829.13;;;5.58;100.00
75317;BME280;63913;51.492;10.368;2023-11-21T01:22:59;97831.63;;;5.56;100.00
75317;BME280;63913;51.492;10.368;2023-11-21T01:25:26;97825.66;;;5.56;100.00
75317;BME280;63913;51.492;10.368;2023-11-21T01:27:51;97832.56;;;5.60;100.00
75317;BME280;63913;51.492;10.368;2023-11-21T01:30:17;97837.00;;;5.65;100.00
75317;BME280;63913;51.492;10.368;2023-11-21T01:32:43;97831.97;;;5.67;100.00
75317;BME280;63913;51.492;10.368;2023-11-21T01:35:09;97843.78;;;5.65;100.00
75317;BME280;63913;51.492;10.368;2023-11-21T01:37:36;97838.75;;;5.68;100.00
75317;BME280;63913;51.492;10.368;2023-11-21T01:40:02;97843.91;;;5.69;100.00
75317;BME280;63913;51.492;10.368;2023-11-21T01:42:27;97848.94;;;5.66;100.00
75317;BME280;63913;51.492;10.368;2023-11-21T01:44:54;97845.59;;;5.67;100.00
75317;BME280;63913;51.492;10.368;2023-11-21T01:47:20;97842.94;;;5.64;100.00
75317;BME280;63913;51.492;10.368;2023-11-21T01:49:46;97838.81;;;5.69;100.00
75317;BME280;63913;51.492;10.368;2023-11-21T01:52:13;97849.19;;;5.74;100.00
75317;BME280;63913;51.492;10.368;2023-11-21T01:54:40;97839.09;;;5.79;100.00
75317;BME280;63913;51.492;10.368;2023-11-21T01:57:06;97840.97;;;5.84;100.00
75317;BME280;63913;51.492;10.368;2023-11-21T01:59:37;97842.06;;;5.91;100.00
75317;BME280;63913;51.492;10.368;2023-11-21T02:02:06;97845.25;;;5.85;100.00
75317;BME280;63913;51.492;10.368;2023-11-21T02:04:33;97847.13;;;5.89;100.00
75317;BME280;63913;51.492;10.368;2023-11-21T02:06:59;97845.50;;;5.93;100.00
75317;BME280;63913;51.492;10.368;2023-11-21T02:09:26;97848.16;;;5.96;100.00
75317;BME280;63913;51.492;10.368;2023-11-21T02:11:55;97844.75;;;5.95;100.00
75317;BME280;63913;51.492;10.368;2023-11-21T02:14:21;97846.53;;;5.98;100.00
75317;BME280;63913;51.492;10.368;2023-11-21T02:16:49;97850.72;;;5.96;100.00
75317;BME280;63913;51.492;10.368;2023-11-21T02:19:18;97860.06;;;5.95;100.00
75317;BME280;63913;51.492;10.368;2023-11-21T02:21:56;97867.59;;;5.91;100.00
75317;BME280;63913;51.492;10.368;2023-11-21T02:24:26;97858.78;;;5.83;100.00
75317;BME280;63913;51.492;10.368;2023-11-21T02:26:52;97863.09;;;5.85;100.00
75317;BME280;63913;51.492;10.368;2023-11-21T02:29:21;97870.75;;;5.85;100.00
75317;BME280;63913;51.492;10.368;2023-11-21T02:31:52;97868.22;;;5.85;100.00
75317;BME280;63913;51.492;10.368;2023-11-21T02:34:21;97867.53;;;5.89;100.00
75317;BME280;63913;51.492;10.368;2023-11-21T02:36:47;97868.41;;;5.90;100.00
75317;BME280;63913;51.492;10.368;2023-11-21T02:39:15;97865.16;;;5.95;100.00
75317;BME280;63913;51.492;10.368;2023-11-21T02:41:42;97861.84;;;5.98;100.00
75317;BME280;63913;51.492;10.368;2023-11-21T02:44:08;97874.66;;;5.99;100.00
75317;BME280;63913;51.492;10.368;2023-11-21T02:46:34;97860.91;;;5.96;100.00
75317;BME280;63913;51.492;10.368;2023-11-21T02:49:03;97859.19;;;5.95;100.00
75317;BME280;63913;51.492;10.368;2023-11-21T02:51:33;97853.25;;;5.96;100.00
75317;BME280;63913;51.492;10.368;2023-11-21T02:53:59;97861.72;;;5.95;100.00
75317;BME280;63913;51.492;10.368;2023-11-21T02:56:27;97857.44;;;5.94;100.00
75317;BME280;63913;51.492;10.368;2023-11-21T02:58:55;97856.72;;;5.98;100.00
75317;BME280;63913;51.492;10.368;2023-11-21T03:01:21;97857.66;;;6.00;100.00
75317;BME280;63913;51.492;10.368;2023-11-21T03:03:46;97862.81;;;6.03;100.00
75317;BME280;63913;51.492;10.368;2023-11-21T03:06:19;97857.03;;;6.08;100.00
75317;BME280;63913;51.492;10.368;2023-11-21T03:08:44;97855.28;;;6.06;100.00
75317;BME280;63913;51.492;10.368;2023-11-21T03:11:10;97854.41;;;6.05;100.00
75317;BME280;63913;51.492;10.368;2023-11-21T03:13:35;97861.13;;;6.03;100.00
75317;BME280;63913;51.492;10.368;2023-11-21T03:16:00;97864.50;;;6.02;100.00
75317;BME280;63913;51.492;10.368;2023-11-21T03:18:26;97867.13;;;6.04;100.00
75317;BME280;63913;51.492;10.368;2023-11-21T03:20:54;97871.28;;;6.02;100.00
75317;BME280;63913;51.492;10.368;2023-11-21T03:23:20;97863.59;;;6.00;100.00
75317;BME280;63913;51.492;10.368;2023-11-21T03:25:45;97869.63;;;6.02;100.00
75317;BME280;63913;51.492;10.368;2023-11-21T03:28:11;97866.19;;;6.02;100.00
75317;BME280;63913;51.492;10.368;2023-11-21T03:30:36;97871.25;;;6.00;100.00
75317;BME280;63913;51.492;10.368;2023-11-21T03:33:03;97864.38;;;5.98;100.00
75317;BME280;63913;51.492;10.368;2023-11-21T03:35:28;97875.41;;;5.97;100.00
75317;BME280;63913;51.492;10.368;2023-11-21T03:37:54;97874.66;;;6.01;100.00
75317;BME280;63913;51.492;10.368;2023-11-21T03:40:19;97873.84;;;6.02;100.00
75317;BME280;63913;51.492;10.368;2023-11-21T03:42:46;97878.00;;;5.98;100.00
75317;BME280;63913;51.492;10.368;2023-11-21T03:45:12;97878.00;;;5.98;100.00
75317;BME280;63913;51.492;10.368;2023-11-21T03:47:38;97887.41;;;5.99;100.00
75317;BME280;63913;51.492;10.368;2023-11-21T03:50:04;97887.41;;;5.99;100.00
75317;BME280;63913;51.492;10.368;2023-11-21T03:52:30;97892.56;;;6.02;100.00
75317;BME280;63913;51.492;10.368;2023-11-21T03:54:55;97893.44;;;6.03;100.00
75317;BME280;63913;51.492;10.368;2023-11-21T03:57:21;97898.66;;;6.06;100.00
75317;BME280;63913;51.492;10.368;2023-11-21T03:59:47;97892.69;;;6.05;100.00
75317;BME280;63913;51.492;10.368;2023-11-21T04:02:12;97892.34;;;5.95;100.00
75317;BME280;63913;51.492;10.368;2023-11-21T04:04:37;97894.25;;;6.02;100.00
75317;BME280;63913;51.492;10.368;2023-11-21T04:07:03;97889.84;;;5.96;100.00
75317;BME280;63913;51.492;10.368;2023-11-21T04:09:29;97908.47;;;5.94;100.00
75317;BME280;63913;51.492;10.368;2023-11-21T04:11:55;97907.75;;;5.98;100.00
75317;BME280;63913;51.492;10.368;2023-11-21T04:14:20;97911.88;;;5.94;100.00
75317;BME280;63913;51.492;10.368;2023-11-21T04:16:46;97900.00;;;5.95;100.00
75317;BME280;63913;51.492;10.368;2023-11-21T04:19:11;97905.06;;;5.93;100.00
75317;BME280;63913;51.492;10.368;2023-11-21T04:21:40;97911.03;;;5.94;100.00
75317;BME280;63913;51.492;10.368;2023-11-21T04:24:06;97906.59;;;5.88;100.00
75317;BME280;63913;51.492;10.368;2023-11-21T04:26:32;97903.91;;;5.85;100.00
75317;BME280;63913;51.492;10.368;2023-11-21T04:28:57;97909.16;;;5.88;100.00
75317;BME280;63913;51.492;10.368;2023-11-21T04:31:22;97912.63;;;5.90;100.00
75317;BME280;63913;51.492;10.368;2023-11-21T04:33:48;97913.44;;;5.89;100.00
75317;BME280;63913;51.492;10.368;2023-11-21T04:36:14;97907.59;;;5.92;100.00
75317;BME280;63913;51.492;10.368;2023-11-21T04:38:39;97909.28;;;5.93;100.00
75317;BME280;63913;51.492;10.368;2023-11-21T04:41:05;97911.81;;;5.91;100.00
75317;BME280;63913;51.492;10.368;2023-11-21T04:43:30;97919.38;;;5.88;100.00
75317;BME280;63913;51.492;10.368;2023-11-21T04:45:55;97925.25;;;5.87;100.00
75317;BME280;63913;51.492;10.368;2023-11-21T04:48:21;97922.69;;;5.87;100.00
75317;BME280;63913;51.492;10.368;2023-11-21T04:50:46;97922.63;;;5.86;100.00
75317;BME280;63913;51.492;10.368;2023-11-21T04:53:11;97934.59;;;5.87;100.00
75317;BME280;63913;51.492;10.368;2023-11-21T04:55:40;97935.22;;;5.80;100.00
75317;BME280;63913;51.492;10.368;2023-11-21T04:58:06;97939.34;;;5.76;100.00
75317;BME280;63913;51.492;10.368;2023-11-21T05:00:33;97944.59;;;5.81;100.00
75317;BME280;63913;51.492;10.368;2023-11-21T05:03:02;97937.81;;;5.81;100.00
75317;BME280;63913;51.492;10.368;2023-11-21T05:05:28;97939.50;;;5.81;100.00
75317;BME280;63913;51.492;10.368;2023-11-21T05:07:55;97945.66;;;5.87;100.00
75317;BME280;63913;51.492;10.368;2023-11-21T05:10:20;97951.72;;;5.89;100.00
75317;BME280;63913;51.492;10.368;2023-11-21T05:12:45;97954.25;;;5.89;100.00
75317;BME280;63913;51.492;10.368;2023-11-21T05:15:14;97950.84;;;5.89;100.00
75317;BME280;63913;51.492;10.368;2023-11-21T05:17:40;97956.81;;;5.89;100.00
75317;BME280;63913;51.492;10.368;2023-11-21T05:20:10;97952.44;;;5.87;100.00
75317;BME280;63913;51.492;10.368;2023-11-21T05:22:37;97965.28;;;5.88;100.00
75317;BME280;63913;51.492;10.368;2023-11-21T05:25:03;97961.03;;;5.89;100.00
75317;BME280;63913;51.492;10.368;2023-11-21T05:27:29;97964.53;;;5.92;100.00
75317;BME280;63913;51.492;10.368;2023-11-21T05:29:56;97968.00;;;5.94;100.00
75317;BME280;63913;51.492;10.368;2023-11-21T05:32:24;97968.88;;;5.95;100.00
75317;BME280;63913;51.492;10.368;2023-11-21T05:34:49;97970.69;;;5.97;100.00
75317;BME280;63913;51.492;10.368;2023-11-21T05:37:14;97973.31;;;6.00;100.00
75317;BME280;63913;51.492;10.368;2023-11-21T05:39:40;97978.50;;;6.03;100.00
75317;BME280;63913;51.492;10.368;2023-11-21T05:42:05;97981.06;;;6.03;100.00
75317;BME280;63913;51.492;10.368;2023-11-21T05:44:31;97982.69;;;6.01;100.00
75317;BME280;63913;51.492;10.368;2023-11-21T05:46:57;97982.75;;;6.03;100.00
75317;BME280;63913;51.492;10.368;2023-11-21T05:49:24;97988.72;;;6.03;100.00
75317;BME280;63913;51.492;10.368;2023-11-21T05:51:53;97992.09;;;6.02;100.00
75317;BME280;63913;51.492;10.368;2023-11-21T05:54:19;97997.31;;;6.05;100.00
75317;BME280;63913;51.492;10.368;2023-11-21T05:56:44;97992.19;;;6.05;100.00
75317;BME280;63913;51.492;10.368;2023-11-21T05:59:10;97995.63;;;6.06;100.00
75317;BME280;63913;51.492;10.368;2023-11-21T06:01:35;97994.00;;;6.09;100.00
75317;BME280;63913;51.492;10.368;2023-11-21T06:04:04;97995.66;;;6.07;100.00
75317;BME280;63913;51.492;10.368;2023-11-21T06:06:29;97998.34;;;6.12;100.00
75317;BME280;63913;51.492;10.368;2023-11-21T06:08:56;98000.97;;;6.13;100.00
75317;BME280;63913;51.492;10.368;2023-11-21T06:11:22;98005.97;;;6.10;100.00
75317;BME280;63913;51.492;10.368;2023-11-21T06:13:47;98011.97;;;6.12;100.00
75317;BME280;63913;51.492;10.368;2023-11-21T06:16:13;98007.69;;;6.11;100.00
75317;BME280;63913;51.492;10.368;2023-11-21T06:18:41;98008.50;;;6.10;100.00
75317;BME280;63913;51.492;10.368;2023-11-21T06:21:09;98006.06;;;6.13;100.00
75317;BME280;63913;51.492;10.368;2023-11-21T06:23:35;98005.91;;;6.09;100.00
75317;BME280;63913;51.492;10.368;2023-11-21T06:26:01;98010.13;;;6.08;100.00
75317;BME280;63913;51.492;10.368;2023-11-21T06:28:26;98017.03;;;6.11;100.00
75317;BME280;63913;51.492;10.368;2023-11-21T06:30:51;98013.66;;;6.12;100.00
75317;BME280;63913;51.492;10.368;2023-11-21T06:33:18;98018.63;;;6.07;100.00
75317;BME280;63913;51.492;10.368;2023-11-21T06:35:44;98026.38;;;6.10;100.00
75317;BME280;63913;51.492;10.368;2023-11-21T06:38:10;98028.88;;;6.09;100.00
75317;BME280;63913;51.492;10.368;2023-11-21T06:40:38;98032.28;;;6.08;100.00
75317;BME280;63913;51.492;10.368;2023-11-21T06:43:04;98035.66;;;6.08;100.00
75317;BME280;63913;51.492;10.368;2023-11-21T06:45:32;98039.81;;;6.05;100.00
75317;BME280;63913;51.492;10.368;2023-11-21T06:47:57;98039.69;;;6.02;100.00
75317;BME280;63913;51.492;10.368;2023-11-21T06:50:22;98049.16;;;6.04;100.00
75317;BME280;63913;51.492;10.368;2023-11-21T06:52:49;98045.72;;;6.04;100.00
75317;BME280;63913;51.492;10.368;2023-11-21T06:55:15;98054.25;;;6.04;100.00
75317;BME280;63913;51.492;10.368;2023-11-21T06:57:41;98052.31;;;5.97;100.00
75317;BME280;63913;51.492;10.368;2023-11-21T07:00:07;98053.94;;;5.95;100.00
75317;BME280;63913;51.492;10.368;2023-11-21T07:02:37;98058.25;;;5.96;100.00
75317;BME280;63913;51.492;10.368;2023-11-21T07:05:04;98055.56;;;5.93;100.00
75317;BME280;63913;51.492;10.368;2023-11-21T07:07:29;98059.88;;;5.94;100.00
75317;BME280;63913;51.492;10.368;2023-11-21T07:09:55;98065.91;;;5.96;100.00
75317;BME280;63913;51.492;10.368;2023-11-21T07:12:20;98070.88;;;5.93;100.00
75317;BME280;63913;51.492;10.368;2023-11-21T07:14:49;98074.09;;;5.88;100.00
75317;BME280;63913;51.492;10.368;2023-11-21T07:17:14;98071.63;;;5.89;100.00
75317;BME280;63913;51.492;10.368;2023-11-21T07:19:39;98089.53;;;5.91;100.00
75317;BME280;63913;51.492;10.368;2023-11-21T07:22:06;98085.25;;;5.90;100.00
75317;BME280;63913;51.492;10.368;2023-11-21T07:24:32;98092.69;;;5.85;100.00
75317;BME280;63913;51.492;10.368;2023-11-21T07:26:58;98096.03;;;5.84;100.00
75317;BME280;63913;51.492;10.368;2023-11-21T07:29:25;98095.25;;;5.85;100.00
75317;BME280;63913;51.492;10.368;2023-11-21T07:31:52;98087.59;;;5.85;100.00
75317;BME280;63913;51.492;10.368;2023-11-21T07:34:20;98094.44;;;5.86;100.00
75317;BME280;63913;51.492;10.368;2023-11-21T07:36:46;98094.56;;;5.89;100.00
75317;BME280;63913;51.492;10.368;2023-11-21T07:39:11;98097.19;;;5.91;100.00
75317;BME280;63913;51.492;10.368;2023-11-21T07:41:37;98094.66;;;5.92;100.00
75317;BME280;63913;51.492;10.368;2023-11-21T07:44:05;98104.97;;;5.95;100.00
75317;BME280;63913;51.492;10.368;2023-11-21T07:46:33;98106.56;;;5.92;100.00
75317;BME280;63913;51.492;10.368;2023-11-21T07:48:59;98115.19;;;5.95;100.00
75317;BME280;63913;51.492;10.368;2023-11-21T07:51:24;98106.66;;;5.95;100.00
75317;BME280;63913;51.492;10.368;2023-11-21T07:53:50;98106.59;;;5.93;100.00
75317;BME280;63913;51.492;10.368;2023-11-21T07:56:15;98122.09;;;5.98;100.00
75317;BME280;63913;51.492;10.368;2023-11-21T07:58:41;98120.50;;;6.01;100.00
75317;BME280;63913;51.492;10.368;2023-11-21T08:01:08;98127.25;;;5.99;100.00
75317;BME280;63913;51.492;10.368;2023-11-21T08:03:35;98136.59;;;6.00;100.00
75317;BME280;63913;51.492;10.368;2023-11-21T08:06:00;98134.97;;;6.02;100.00
75317;BME280;63913;51.492;10.368;2023-11-21T08:08:29;98135.16;;;6.07;100.00
75317;BME280;63913;51.492;10.368;2023-11-21T08:10:54;98139.34;;;6.05;100.00
75317;BME280;63913;51.492;10.368;2023-11-21T08:13:24;98139.47;;;6.09;100.00
75317;BME280;63913;51.492;10.368;2023-11-21T08:15:50;98140.22;;;6.05;100.00
75317;BME280;63913;51.492;10.368;2023-11-21T08:18:16;98144.59;;;6.09;100.00
75317;BME280;63913;51.492;10.368;2023-11-21T08:20:43;98145.38;;;6.08;100.00
75317;BME280;63913;51.492;10.368;2023-11-21T08:23:09;98146.31;;;6.10;100.00
75317;BME280;63913;51.492;10.368;2023-11-21T08:25:34;98151.47;;;6.12;100.00
75317;BME280;63913;51.492;10.368;2023-11-21T08:28:00;98144.69;;;6.12;100.00
75317;BME280;63913;51.492;10.368;2023-11-21T08:30:27;98154.91;;;6.12;100.00
75317;BME280;63913;51.492;10.368;2023-11-21T08:32:55;98154.97;;;6.14;100.00
75317;BME280;63913;51.492;10.368;2023-11-21T08:35:26;98149.19;;;6.20;100.00
75317;BME280;63913;51.492;10.368;2023-11-21T08:37:52;98161.03;;;6.18;100.00
75317;BME280;63913;51.492;10.368;2023-11-21T08:40:21;98160.06;;;6.14;100.00
75317;BME280;63913;51.492;10.368;2023-11-21T08:42:47;98160.81;;;6.11;100.00
75317;BME280;63913;51.492;10.368;2023-11-21T08:45:14;98165.13;;;6.12;100.00
75317;BME280;63913;51.492;10.368;2023-11-21T08:47:39;98159.03;;;6.09;100.00
75317;BME280;63913;51.492;10.368;2023-11-21T08:50:06;98161.69;;;6.12;100.00
75317;BME280;63913;51.492;10.368;2023-11-21T08:52:34;98165.97;;;6.13;100.00
75317;BME280;63913;51.492;10.368;2023-11-21T08:54:59;98171.22;;;6.16;100.00
75317;BME280;63913;51.492;10.368;2023-11-21T08:57:28;98175.53;;;6.19;100.00
75317;BME280;63913;51.492;10.368;2023-11-21T08:59:53;98175.38;;;6.14;100.00
75317;BME280;63913;51.492;10.368;2023-11-21T09:02:21;98176.31;;;6.16;100.00
75317;BME280;63913;51.492;10.368;2023-11-21T09:04:48;98178.13;;;6.20;100.00
75317;BME280;63913;51.492;10.368;2023-11-21T09:07:14;98174.88;;;6.24;100.00
75317;BME280;63913;51.492;10.368;2023-11-21T09:09:40;98179.16;;;6.25;100.00
75317;BME280;63913;51.492;10.368;2023-11-21T09:12:06;98180.81;;;6.25;100.00
75317;BME280;63913;51.492;10.368;2023-11-21T09:14:32;98184.31;;;6.27;100.00
75317;BME280;63913;51.492;10.368;2023-11-21T09:16:57;98188.59;;;6.28;100.00
75317;BME280;63913;51.492;10.368;2023-11-21T09:19:23;98193.72;;;6.28;100.00
75317;BME280;63913;51.492;10.368;2023-11-21T09:21:48;98189.59;;;6.31;100.00
75317;BME280;63913;51.492;10.368;2023-11-21T09:24:14;98197.31;;;6.34;100.00
75317;BME280;63913;51.492;10.368;2023-11-21T09:26:39;98195.69;;;6.36;100.00
75317;BME280;63913;51.492;10.368;2023-11-21T09:29:05;98202.00;;;6.46;100.00
75317;BME280;63913;51.492;10.368;2023-11-21T09:31:30;98201.78;;;6.40;100.00
75317;BME280;63913;51.492;10.368;2023-11-21T09:33:56;98203.50;;;6.41;100.00
75317;BME280;63913;51.492;10.368;2023-11-21T09:36:23;98202.59;;;6.39;100.00
75317;BME280;63913;51.492;10.368;2023-11-21T09:38:52;98205.22;;;6.40;100.00
75317;BME280;63913;51.492;10.368;2023-11-21T09:41:43;98219.69;;;6.41;100.00
75317;BME280;63913;51.492;10.368;2023-11-21T09:44:13;98217.25;;;6.44;100.00
75317;BME280;63913;51.492;10.368;2023-11-21T09:46:41;98220.81;;;6.49;100.00
75317;BME280;63913;51.492;10.368;2023-11-21T09:49:09;98217.31;;;6.46;100.00
75317;BME280;63913;51.492;10.368;2023-11-21T09:51:39;98215.47;;;6.42;100.00
75317;BME280;63913;51.492;10.368;2023-11-21T09:54:10;98218.00;;;6.42;100.00
75317;BME280;63913;51.492;10.368;2023-11-21T09:56:36;98220.56;;;6.42;100.00
75317;BME280;63913;51.492;10.368;2023-11-21T09:59:03;98220.63;;;6.43;100.00
75317;BME280;63913;51.492;10.368;2023-11-21T10:01:33;98219.81;;;6.44;100.00
75317;BME280;63913;51.492;10.368;2023-11-21T10:04:01;98213.94;;;6.47;100.00
75317;BME280;63913;51.492;10.368;2023-11-21T10:06:28;98222.63;;;6.52;100.00
75317;BME280;63913;51.492;10.368;2023-11-21T10:08:56;98219.31;;;6.55;100.00
75317;BME280;63913;51.492;10.368;2023-11-21T10:11:27;98222.72;;;6.55;100.00
75317;BME280;63913;51.492;10.368;2023-11-21T10:13:54;98213.41;;;6.57;100.00
75317;BME280;63913;51.492;10.368;2023-11-21T10:16:22;98219.38;;;6.58;100.00
75317;BME280;63913;51.492;10.368;2023-11-21T10:18:52;98216.94;;;6.61;100.00
75317;BME280;63913;51.492;10.368;2023-11-21T10:21:21;98226.41;;;6.63;100.00
75317;BME280;63913;51.492;10.368;2023-11-21T10:23:48;98226.50;;;6.66;100.00
75317;BME280;63913;51.492;10.368;2023-11-21T10:26:13;98228.09;;;6.63;100.00
75317;BME280;63913;51.492;10.368;2023-11-21T10:29:02;98228.03;;;6.61;100.00
75317;BME280;63913;51.492;10.368;2023-11-21T10:31:30;98224.72;;;6.64;100.00
75317;BME280;63913;51.492;10.368;2023-11-21T10:34:15;98227.31;;;6.65;100.00
75317;BME280;63913;51.492;10.368;2023-11-21T10:36:41;98234.13;;;6.65;100.00
75317;BME280;63913;51.492;10.368;2023-11-21T10:39:16;98243.41;;;6.63;100.00
75317;BME280;63913;51.492;10.368;2023-11-21T10:41:45;98240.00;;;6.62;100.00
75317;BME280;63913;51.492;10.368;2023-11-21T10:44:14;98238.19;;;6.60;100.00
75317;BME280;63913;51.492;10.368;2023-11-21T10:46:53;98247.53;;;6.59;100.00
75317;BME280;63913;51.492;10.368;2023-11-21T10:49:24;98248.41;;;6.60;100.00
75317;BME280;63913;51.492;10.368;2023-11-21T10:51:51;98246.78;;;6.62;100.00
75317;BME280;63913;51.492;10.368;2023-11-21T10:54:21;98242.44;;;6.59;100.00
75317;BME280;63913;51.492;10.368;2023-11-21T10:56:56;98244.91;;;6.56;100.00
75317;BME280;63913;51.492;10.368;2023-11-21T10:59:22;98256.00;;;6.58;100.00
75317;BME280;63913;51.492;10.368;2023-11-21T11:01:51;98266.28;;;6.60;100.00
75317;BME280;63913;51.492;10.368;2023-11-21T11:04:19;98264.56;;;6.59;100.00
75317;BME280;63913;51.492;10.368;2023-11-21T11:06:51;98260.31;;;6.59;100.00
75317;BME280;63913;51.492;10.368;2023-11-21T11:09:20;98267.09;;;6.59;100.00
75317;BME280;63913;51.492;10.368;2023-11-21T11:11:46;98262.81;;;6.58;100.00
75317;BME280;63913;51.492;10.368;2023-11-21T11:14:12;98263.41;;;6.50;100.00
75317;BME280;63913;51.492;10.368;2023-11-21T11:16:41;98270.44;;;6.56;100.00
75317;BME280;63913;51.492;10.368;2023-11-21T11:19:11;98269.56;;;6.56;100.00
75317;BME280;63913;51.492;10.368;2023-11-21T11:27:48;98265.34;;;6.56;100.00
75317;BME280;63913;51.492;10.368;2023-11-21T11:33:13;98272.88;;;6.53;100.00
75317;BME280;63913;51.492;10.368;2023-11-21T11:35:56;98266.16;;;6.55;100.00
75317;BME280;63913;51.492;10.368;2023-11-21T11:38:22;98266.97;;;6.54;100.00
75317;BME280;63913;51.492;10.368;2023-11-21T11:40:52;98274.72;;;6.57;100.00
75317;BME280;63913;51.492;10.368;2023-11-21T11:43:27;98280.69;;;6.58;100.00
75317;BME280;63913;51.492;10.368;2023-11-21T11:45:59;98277.38;;;6.60;100.00
75317;BME280;63913;51.492;10.368;2023-11-21T11:48:25;98274.00;;;6.61;100.00
75317;BME280;63913;51.492;10.368;2023-11-21T11:51:04;98278.25;;;6.61;100.00
75317;BME280;63913;51.492;10.368;2023-11-21T11:53:35;98285.84;;;6.59;100.00
75317;BME280;63913;51.492;10.368;2023-11-21T11:56:30;98285.16;;;6.63;100.00
75317;BME280;63913;51.492;10.368;2023-11-21T11:59:01;98298.00;;;6.66;100.00
75317;BME280;63913;51.492;10.368;2023-11-21T12:01:35;98295.44;;;6.65;100.00
75317;BME280;63913;51.492;10.368;2023-11-21T12:06:40;98290.34;;;6.66;100.00
75317;BME280;63913;51.492;10.368;2023-11-21T12:09:06;98301.44;;;6.67;100.00
75317;BME280;63913;51.492;10.368;2023-11-21T12:11:32;98305.78;;;6.69;100.00
75317;BME280;63913;51.492;10.368;2023-11-21T12:13:58;98309.28;;;6.71;100.00
75317;BME280;63913;51.492;10.368;2023-11-21T12:16:25;98310.03;;;6.69;100.00
75317;BME280;63913;51.492;10.368;2023-11-21T12:18:54;98309.97;;;6.67;100.00
75317;BME280;63913;51.492;10.368;2023-11-21T12:21:20;98305.78;;;6.69;100.00
75317;BME280;63913;51.492;10.368;2023-11-21T12:23:46;98311.88;;;6.73;100.00
75317;BME280;63913;51.492;10.368;2023-11-21T12:26:13;98321.19;;;6.71;100.00
75317;BME280;63913;51.492;10.368;2023-11-21T12:28:39;98327.84;;;6.67;100.00
75317;BME280;63913;51.492;10.368;2023-11-21T12:31:05;98333.16;;;6.72;100.00
75317;BME280;63913;51.492;10.368;2023-11-21T12:33:33;98326.16;;;6.68;100.00
75317;BME280;63913;51.492;10.368;2023-11-21T12:35:58;98319.38;;;6.68;100.00
75317;BME280;63913;51.492;10.368;2023-11-21T12:38:24;98327.84;;;6.67;100.00
75317;BME280;63913;51.492;10.368;2023-11-21T12:40:50;98326.97;;;6.67;100.00
75317;BME280;63913;51.492;10.368;2023-11-21T12:43:17;98315.94;;;6.68;100.00
75317;BME280;63913;51.492;10.368;2023-11-21T12:45:43;98322.06;;;6.71;100.00
75317;BME280;63913;51.492;10.368;2023-11-21T12:48:09;98329.59;;;6.68;100.00
75317;BME280;63913;51.492;10.368;2023-11-21T12:50:37;98337.44;;;6.73;100.00
75317;BME280;63913;51.492;10.368;2023-11-21T12:53:08;98336.59;;;6.74;100.00
75317;BME280;63913;51.492;10.368;2023-11-21T12:55:35;98345.09;;;6.73;100.00
75317;BME280;63913;51.492;10.368;2023-11-21T12:58:06;98344.44;;;6.78;100.00
75317;BME280;63913;51.492;10.368;2023-11-21T13:00:45;98343.38;;;6.73;100.00